TAF KSDY
KSDY 081720Z 0818/0918 20015G25KT P6SM SCT070 FM082200 21012G20KT P6SM BKN070 WS020/27040KT FM091100 27010G20KT P6SM FEW040 FM091500 27009KT P6SM FEW060=
METAR KSDY
WC KSDY
WS KSDY
WV KSDY